OOCL Tokyo — VRCI9 — position and weather

sailwx.info

Track history (hours):
 
Tides and Currents Weather Stations Pressure Air Temp Water Temp Dewpoint Dewpoint Depression Visibility Wind Speed Wind Dir Waves Ship Positions

OOCL Tokyo

Last reported at 2018-Jun-19 06:00 UTC. Time now 2018-Jun-19 17:47 UTC.
Position N 48°00' E 170°48'.

Length 323 m; draft 10.8 m.

Type: Cargo ship. MMSI: 477607700.

Wind from 310 at 8 knots

Barometer 1024.0 mb
Air temperature 5.0 ° C
Visibility: greater than 10.8 NM
Dewpoint 1.6 ° C
Water temperature 4.8 ° C

Date/timePositionNaut miles runAvg speedWind from/ knotsBaromVisibWave heightAir tempDewpointWater temp
2018-Jun-19 06:00N 48°00' E 170°48'10617.7 310 / 81024.010.8 5.0 1.6 4.8
2018-Jun-19 00:00N 47°42' E 168°12'30116.7 300 / 81024.810.8 6.0-1.2 4.5
2018-Jun-18 06:00N 46°36' E 161°00'10818.0 270 / 71023.010.8 10.0 1.2 4.7
2018-Jun-18 00:00N 46°06' E 158°30'29916.6 200 / 51023.810.8 8.0 1.3 3.9
2018-Jun-17 06:00N 44°30' E 151°48'41117.1 230 / 101022.010.8 9.0-0.1 5.6
2018-Jun-16 06:00N 41°36' E 143°18'38416.0 110 / 151018.010.8 12.0 3.9 6.5
2018-Jun-15 06:00N 39°12' E 135°30'408 9.5 070 / 181016.010.8 16.0 8.819.0
2018-Jun-13 10:57N 34°58' E 128°49'35314.1
2018-Jun-12 09:53N 31°21' E 123°17'914.2
2018-Jun-12 09:13N 31°16' E 123°08'314.6
2018-Jun-12 09:01N 31°15' E 123°04'815.2
2018-Jun-12 08:29N 31°10' E 122°56'715.3
2018-Jun-12 08:01N 31°07' E 122°49'815.9
2018-Jun-12 07:31N 31°06' E 122°40'815.7
2018-Jun-12 07:00N 31°06' E 122°30'612.7
2018-Jun-12 06:30N 31°06' E 122°23'714.3
2018-Jun-12 06:00N 31°08' E 122°15'814.9
2018-Jun-12 05:29N 31°12' E 122°08'814.8
2018-Jun-12 04:59N 31°15' E 121°59'714.9
2018-Jun-12 04:30N 31°16' E 121°51'16 2.4
2018-Jun-11 21:57N 31°23' E 121°35'0 0.0
2018-Jun-11 21:27N 31°23' E 121°35'0 0.0
2018-Jun-11 15:33N 31°23' E 121°35'0 0.0
2018-Jun-11 15:09N 31°23' E 121°35'0 0.0
2018-Jun-11 14:51N 31°23' E 121°35'0 0.0
2018-Jun-11 13:39N 31°23' E 121°35'0 0.0
2018-Jun-11 12:27N 31°23' E 121°35'0 0.0
2018-Jun-11 09:09N 31°23' E 121°35'0 0.1
2018-Jun-11 08:51N 31°23' E 121°35'0 0.0
2018-Jun-11 08:27N 31°23' E 121°35'0 0.0
2018-Jun-11 07:51N 31°23' E 121°35'0 0.0
2018-Jun-11 07:21N 31°23' E 121°35'0 0.0
2018-Jun-11 06:45N 31°23' E 121°35'0 0.0
2018-Jun-11 06:27N 31°23' E 121°35'0 0.0
2018-Jun-11 05:51N 31°23' E 121°35'0 0.0
2018-Jun-11 05:30N 31°23' E 121°35'0 0.0
2018-Jun-11 04:33N 31°23' E 121°35'0 0.0
2018-Jun-11 04:24N 31°23' E 121°35'1 0.2
2018-Jun-11 01:22N 31°23' E 121°34'17 9.3
2018-Jun-10 23:33N 31°16' E 121°52'111.0
2018-Jun-10 23:30N 31°16' E 121°53'711.5
2018-Jun-10 22:52N 31°15' E 122°01'514.6
2018-Jun-10 22:30N 31°13' E 122°07'714.8
2018-Jun-10 22:00N 31°09' E 122°14'611.4
2018-Jun-10 21:30N 31°06' E 122°20'511.0
2018-Jun-10 21:00N 31°07' E 122°26'9 0.4
2018-Jun-10 00:00N 31°01' E 122°34'68 7.1
2018-Jun-09 14:28N 29°54' E 122°47'  
Track history (hours):
 
Tides and Currents Weather Stations Pressure Air Temp Water Temp Dewpoint Dewpoint Depression Visibility Wind Speed Wind Dir Waves Ship Positions

OOCL Tokyo

Last reported at 2018-Jun-19 06:00 UTC. Time now 2018-Jun-19 17:47 UTC.
Position N 48°00' E 170°48'.

Length 323 m; draft 10.8 m.

Type: Cargo ship. MMSI: 477607700.

Wind from 310 at 8 knots

Barometer 1024.0 mb
Air temperature 5.0 ° C
Visibility: greater than 10.8 NM
Dewpoint 1.6 ° C
Water temperature 4.8 ° C

Date/timePositionNaut miles runAvg speedWind from/ knotsBaromVisibWave heightAir tempDewpointWater temp
2018-Jun-19 06:00N 48°00' E 170°48'10617.7 310 / 81024.010.8 5.0 1.6 4.8
2018-Jun-19 00:00N 47°42' E 168°12'30116.7 300 / 81024.810.8 6.0-1.2 4.5
2018-Jun-18 06:00N 46°36' E 161°00'10818.0 270 / 71023.010.8 10.0 1.2 4.7
2018-Jun-18 00:00N 46°06' E 158°30'29916.6 200 / 51023.810.8 8.0 1.3 3.9
2018-Jun-17 06:00N 44°30' E 151°48'41117.1 230 / 101022.010.8 9.0-0.1 5.6
2018-Jun-16 06:00N 41°36' E 143°18'38416.0 110 / 151018.010.8 12.0 3.9 6.5
2018-Jun-15 06:00N 39°12' E 135°30'408 9.5 070 / 181016.010.8 16.0 8.819.0
2018-Jun-13 10:57N 34°58' E 128°49'35314.1
2018-Jun-12 09:53N 31°21' E 123°17'914.2
2018-Jun-12 09:13N 31°16' E 123°08'314.6
2018-Jun-12 09:01N 31°15' E 123°04'815.2
2018-Jun-12 08:29N 31°10' E 122°56'715.3
2018-Jun-12 08:01N 31°07' E 122°49'815.9
2018-Jun-12 07:31N 31°06' E 122°40'815.7
2018-Jun-12 07:00N 31°06' E 122°30'612.7
2018-Jun-12 06:30N 31°06' E 122°23'714.3
2018-Jun-12 06:00N 31°08' E 122°15'814.9
2018-Jun-12 05:29N 31°12' E 122°08'814.8
2018-Jun-12 04:59N 31°15' E 121°59'714.9
2018-Jun-12 04:30N 31°16' E 121°51'16 2.4
2018-Jun-11 21:57N 31°23' E 121°35'0 0.0
2018-Jun-11 21:27N 31°23' E 121°35'0 0.0
2018-Jun-11 15:33N 31°23' E 121°35'0 0.0
2018-Jun-11 15:09N 31°23' E 121°35'0 0.0
2018-Jun-11 14:51N 31°23' E 121°35'0 0.0
2018-Jun-11 13:39N 31°23' E 121°35'0 0.0
2018-Jun-11 12:27N 31°23' E 121°35'0 0.0
2018-Jun-11 09:09N 31°23' E 121°35'0 0.1
2018-Jun-11 08:51N 31°23' E 121°35'0 0.0
2018-Jun-11 08:27N 31°23' E 121°35'0 0.0
2018-Jun-11 07:51N 31°23' E 121°35'0 0.0
2018-Jun-11 07:21N 31°23' E 121°35'0 0.0
2018-Jun-11 06:45N 31°23' E 121°35'0 0.0
2018-Jun-11 06:27N 31°23' E 121°35'0 0.0
2018-Jun-11 05:51N 31°23' E 121°35'0 0.0
2018-Jun-11 05:30N 31°23' E 121°35'0 0.0
2018-Jun-11 04:33N 31°23' E 121°35'0 0.0
2018-Jun-11 04:24N 31°23' E 121°35'1 0.2
2018-Jun-11 01:22N 31°23' E 121°34'17 9.3
2018-Jun-10 23:33N 31°16' E 121°52'111.0
2018-Jun-10 23:30N 31°16' E 121°53'711.5
2018-Jun-10 22:52N 31°15' E 122°01'514.6
2018-Jun-10 22:30N 31°13' E 122°07'714.8
2018-Jun-10 22:00N 31°09' E 122°14'611.4
2018-Jun-10 21:30N 31°06' E 122°20'511.0
2018-Jun-10 21:00N 31°07' E 122°26'9 0.4
2018-Jun-10 00:00N 31°01' E 122°34'68 7.1
2018-Jun-09 14:28N 29°54' E 122°47'  

Dump ship's entire track history